sensor_id;sensor_type;location;lat;lon;timestamp;P1;durP1;ratioP1;P2;durP2;ratioP2
23140;SDS011;11739;54.750;9.124;2023-06-22T00:00:23;3.45;;;3.15;;
23140;SDS011;11739;54.750;9.124;2023-06-22T00:02:49;3.45;;;3.15;;
23140;SDS011;11739;54.750;9.124;2023-06-22T00:05:14;3.67;;;3.30;;
23140;SDS011;11739;54.750;9.124;2023-06-22T00:07:39;4.07;;;3.00;;
23140;SDS011;11739;54.750;9.124;2023-06-22T00:10:05;3.53;;;3.22;;
23140;SDS011;11739;54.750;9.124;2023-06-22T00:12:30;4.53;;;3.42;;
23140;SDS011;11739;54.750;9.124;2023-06-22T00:14:56;3.40;;;3.10;;
23140;SDS011;11739;54.750;9.124;2023-06-22T00:17:21;3.58;;;2.80;;
23140;SDS011;11739;54.750;9.124;2023-06-22T00:19:47;3.65;;;3.30;;
23140;SDS011;11739;54.750;9.124;2023-06-22T00:22:12;4.28;;;3.00;;
23140;SDS011;11739;54.750;9.124;2023-06-22T00:24:37;3.65;;;2.95;;
23140;SDS011;11739;54.750;9.124;2023-06-22T00:27:03;3.85;;;3.50;;
23140;SDS011;11739;54.750;9.124;2023-06-22T00:29:28;3.33;;;3.03;;
23140;SDS011;11739;54.750;9.124;2023-06-22T00:31:54;3.42;;;3.13;;
23140;SDS011;11739;54.750;9.124;2023-06-22T00:34:19;3.00;;;2.80;;
23140;SDS011;11739;54.750;9.124;2023-06-22T00:36:44;4.10;;;2.97;;
23140;SDS011;11739;54.750;9.124;2023-06-22T00:39:09;3.17;;;2.90;;
23140;SDS011;11739;54.750;9.124;2023-06-22T00:41:35;3.17;;;2.80;;
23140;SDS011;11739;54.750;9.124;2023-06-22T00:44:00;3.20;;;2.90;;
23140;SDS011;11739;54.750;9.124;2023-06-22T00:46:25;2.80;;;2.60;;
23140;SDS011;11739;54.750;9.124;2023-06-22T00:48:51;3.03;;;2.80;;
23140;SDS011;11739;54.750;9.124;2023-06-22T00:51:16;3.97;;;3.67;;
23140;SDS011;11739;54.750;9.124;2023-06-22T00:53:42;3.58;;;3.28;;
23140;SDS011;11739;54.750;9.124;2023-06-22T00:56:07;6.13;;;3.05;;
23140;SDS011;11739;54.750;9.124;2023-06-22T00:58:32;3.35;;;2.83;;
23140;SDS011;11739;54.750;9.124;2023-06-22T01:00:58;3.13;;;2.65;;
23140;SDS011;11739;54.750;9.124;2023-06-22T01:03:23;3.05;;;2.78;;
23140;SDS011;11739;54.750;9.124;2023-06-22T01:05:48;2.97;;;2.78;;
23140;SDS011;11739;54.750;9.124;2023-06-22T01:13:26;4.50;;;4.10;;
23140;SDS011;11739;54.750;9.124;2023-06-22T01:16:07;4.40;;;4.00;;
23140;SDS011;11739;54.750;9.124;2023-06-22T01:18:36;4.18;;;3.88;;
23140;SDS011;11739;54.750;9.124;2023-06-22T01:21:04;6.00;;;5.50;;
23140;SDS011;11739;54.750;9.124;2023-06-22T01:28:43;3.63;;;3.33;;
23140;SDS011;11739;54.750;9.124;2023-06-22T01:31:10;3.63;;;3.38;;
23140;SDS011;11739;54.750;9.124;2023-06-22T01:33:38;3.38;;;3.13;;
23140;SDS011;11739;54.750;9.124;2023-06-22T01:36:05;4.35;;;3.95;;
23140;SDS011;11739;54.750;9.124;2023-06-22T01:38:31;3.47;;;3.28;;
23140;SDS011;11739;54.750;9.124;2023-06-22T01:40:57;3.50;;;3.30;;
23140;SDS011;11739;54.750;9.124;2023-06-22T01:43:24;3.60;;;3.30;;
23140;SDS011;11739;54.750;9.124;2023-06-22T01:45:50;3.45;;;3.15;;
23140;SDS011;11739;54.750;9.124;2023-06-22T01:48:16;3.08;;;2.88;;
23140;SDS011;11739;54.750;9.124;2023-06-22T01:50:42;3.20;;;3.00;;
23140;SDS011;11739;54.750;9.124;2023-06-22T01:53:07;2.80;;;2.60;;
23140;SDS011;11739;54.750;9.124;2023-06-22T01:55:33;2.92;;;2.72;;
23140;SDS011;11739;54.750;9.124;2023-06-22T01:57:58;2.75;;;2.55;;
23140;SDS011;11739;54.750;9.124;2023-06-22T02:00:23;2.53;;;2.33;;
23140;SDS011;11739;54.750;9.124;2023-06-22T02:05:20;4.68;;;4.28;;
23140;SDS011;11739;54.750;9.124;2023-06-22T02:08:07;5.15;;;4.75;;
23140;SDS011;11739;54.750;9.124;2023-06-22T02:10:34;4.20;;;3.90;;
23140;SDS011;11739;54.750;9.124;2023-06-22T02:13:01;4.13;;;3.83;;
23140;SDS011;11739;54.750;9.124;2023-06-22T02:15:30;3.25;;;3.03;;
23140;SDS011;11739;54.750;9.124;2023-06-22T02:17:55;3.05;;;2.85;;
23140;SDS011;11739;54.750;9.124;2023-06-22T02:20:21;2.85;;;2.63;;
23140;SDS011;11739;54.750;9.124;2023-06-22T02:22:46;2.65;;;2.45;;
23140;SDS011;11739;54.750;9.124;2023-06-22T02:25:11;2.20;;;2.10;;
23140;SDS011;11739;54.750;9.124;2023-06-22T02:27:36;2.33;;;2.13;;
23140;SDS011;11739;54.750;9.124;2023-06-22T02:30:02;2.08;;;1.88;;
23140;SDS011;11739;54.750;9.124;2023-06-22T02:32:27;1.90;;;1.80;;
23140;SDS011;11739;54.750;9.124;2023-06-22T02:34:52;2.10;;;1.90;;
23140;SDS011;11739;54.750;9.124;2023-06-22T02:37:18;2.00;;;1.90;;
23140;SDS011;11739;54.750;9.124;2023-06-22T02:39:43;2.55;;;2.35;;
23140;SDS011;11739;54.750;9.124;2023-06-22T02:42:09;2.47;;;2.28;;
23140;SDS011;11739;54.750;9.124;2023-06-22T02:44:34;3.00;;;2.80;;
23140;SDS011;11739;54.750;9.124;2023-06-22T02:46:59;3.72;;;3.45;;
23140;SDS011;11739;54.750;9.124;2023-06-22T02:49:24;2.95;;;2.75;;
23140;SDS011;11739;54.750;9.124;2023-06-22T02:51:50;3.80;;;3.50;;
23140;SDS011;11739;54.750;9.124;2023-06-22T02:54:15;4.07;;;3.78;;
23140;SDS011;11739;54.750;9.124;2023-06-22T02:56:41;3.55;;;3.35;;
23140;SDS011;11739;54.750;9.124;2023-06-22T02:59:06;3.83;;;3.20;;
23140;SDS011;11739;54.750;9.124;2023-06-22T03:01:31;3.60;;;3.33;;
23140;SDS011;11739;54.750;9.124;2023-06-22T03:03:57;3.78;;;3.47;;
23140;SDS011;11739;54.750;9.124;2023-06-22T03:06:22;3.95;;;3.35;;
23140;SDS011;11739;54.750;9.124;2023-06-22T03:08:47;4.68;;;3.97;;
23140;SDS011;11739;54.750;9.124;2023-06-22T03:11:13;3.90;;;3.60;;
23140;SDS011;11739;54.750;9.124;2023-06-22T03:13:38;4.05;;;3.75;;
23140;SDS011;11739;54.750;9.124;2023-06-22T03:16:03;3.45;;;3.25;;
23140;SDS011;11739;54.750;9.124;2023-06-22T03:18:29;3.78;;;3.47;;
23140;SDS011;11739;54.750;9.124;2023-06-22T03:20:54;3.25;;;3.05;;
23140;SDS011;11739;54.750;9.124;2023-06-22T03:23:19;3.53;;;3.22;;
23140;SDS011;11739;54.750;9.124;2023-06-22T03:25:45;3.15;;;2.95;;
23140;SDS011;11739;54.750;9.124;2023-06-22T03:28:10;2.95;;;2.67;;
23140;SDS011;11739;54.750;9.124;2023-06-22T03:30:35;2.80;;;2.60;;
23140;SDS011;11739;54.750;9.124;2023-06-22T03:33:01;3.25;;;3.05;;
23140;SDS011;11739;54.750;9.124;2023-06-22T03:35:26;2.90;;;2.70;;
23140;SDS011;11739;54.750;9.124;2023-06-22T03:37:51;2.80;;;2.60;;
23140;SDS011;11739;54.750;9.124;2023-06-22T03:40:16;2.92;;;2.72;;
23140;SDS011;11739;54.750;9.124;2023-06-22T03:42:42;2.38;;;2.28;;
23140;SDS011;11739;54.750;9.124;2023-06-22T03:45:07;3.38;;;2.10;;
23140;SDS011;11739;54.750;9.124;2023-06-22T03:47:33;1.95;;;1.85;;
23140;SDS011;11739;54.750;9.124;2023-06-22T03:49:58;2.33;;;2.13;;
23140;SDS011;11739;54.750;9.124;2023-06-22T03:52:23;2.28;;;2.17;;
23140;SDS011;11739;54.750;9.124;2023-06-22T03:54:49;2.85;;;2.13;;
23140;SDS011;11739;54.750;9.124;2023-06-22T03:57:14;3.47;;;3.22;;
23140;SDS011;11739;54.750;9.124;2023-06-22T03:59:39;3.80;;;3.50;;
23140;SDS011;11739;54.750;9.124;2023-06-22T04:02:05;3.92;;;3.63;;
23140;SDS011;11739;54.750;9.124;2023-06-22T04:04:30;4.07;;;3.78;;
23140;SDS011;11739;54.750;9.124;2023-06-22T04:06:55;3.67;;;3.38;;
23140;SDS011;11739;54.750;9.124;2023-06-22T04:09:21;3.38;;;3.17;;
23140;SDS011;11739;54.750;9.124;2023-06-22T04:11:46;2.90;;;2.70;;
23140;SDS011;11739;54.750;9.124;2023-06-22T04:14:11;3.10;;;2.90;;
23140;SDS011;11739;54.750;9.124;2023-06-22T04:16:36;3.17;;;2.92;;
23140;SDS011;11739;54.750;9.124;2023-06-22T04:19:02;3.72;;;3.42;;
23140;SDS011;11739;54.750;9.124;2023-06-22T04:21:27;3.00;;;2.80;;
23140;SDS011;11739;54.750;9.124;2023-06-22T04:23:52;2.70;;;2.50;;
23140;SDS011;11739;54.750;9.124;2023-06-22T04:26:18;2.70;;;2.50;;
23140;SDS011;11739;54.750;9.124;2023-06-22T04:28:43;2.58;;;2.38;;
23140;SDS011;11739;54.750;9.124;2023-06-22T04:31:08;2.50;;;2.30;;
23140;SDS011;11739;54.750;9.124;2023-06-22T04:33:33;2.30;;;2.10;;
23140;SDS011;11739;54.750;9.124;2023-06-22T04:35:59;2.45;;;2.25;;
23140;SDS011;11739;54.750;9.124;2023-06-22T04:38:24;2.15;;;2.05;;
23140;SDS011;11739;54.750;9.124;2023-06-22T04:40:50;2.33;;;2.13;;
23140;SDS011;11739;54.750;9.124;2023-06-22T04:43:15;2.47;;;2.28;;
23140;SDS011;11739;54.750;9.124;2023-06-22T04:45:41;2.35;;;2.15;;
23140;SDS011;11739;54.750;9.124;2023-06-22T04:48:06;2.45;;;2.28;;
23140;SDS011;11739;54.750;9.124;2023-06-22T04:50:32;2.50;;;2.30;;
23140;SDS011;11739;54.750;9.124;2023-06-22T04:52:57;3.75;;;2.70;;
23140;SDS011;11739;54.750;9.124;2023-06-22T04:55:23;3.03;;;2.50;;
23140;SDS011;11739;54.750;9.124;2023-06-22T04:57:48;3.15;;;2.90;;
23140;SDS011;11739;54.750;9.124;2023-06-22T05:00:14;3.47;;;3.08;;
23140;SDS011;11739;54.750;9.124;2023-06-22T05:02:40;2.63;;;2.40;;
23140;SDS011;11739;54.750;9.124;2023-06-22T05:05:06;2.97;;;2.78;;
23140;SDS011;11739;54.750;9.124;2023-06-22T05:07:35;3.25;;;2.95;;
23140;SDS011;11739;54.750;9.124;2023-06-22T05:10:01;3.72;;;3.10;;
23140;SDS011;11739;54.750;9.124;2023-06-22T05:12:28;3.03;;;2.72;;
23140;SDS011;11739;54.750;9.124;2023-06-22T05:14:53;2.92;;;2.63;;
23140;SDS011;11739;54.750;9.124;2023-06-22T05:17:18;2.85;;;2.65;;
23140;SDS011;11739;54.750;9.124;2023-06-22T05:19:44;3.10;;;2.80;;
23140;SDS011;11739;54.750;9.124;2023-06-22T05:22:09;2.60;;;2.40;;
23140;SDS011;11739;54.750;9.124;2023-06-22T05:24:34;3.15;;;2.85;;
23140;SDS011;11739;54.750;9.124;2023-06-22T05:27:00;3.22;;;2.80;;
23140;SDS011;11739;54.750;9.124;2023-06-22T05:29:25;3.38;;;3.08;;
23140;SDS011;11739;54.750;9.124;2023-06-22T05:31:50;3.92;;;3.60;;
23140;SDS011;11739;54.750;9.124;2023-06-22T05:34:16;4.03;;;3.40;;
23140;SDS011;11739;54.750;9.124;2023-06-22T05:36:41;4.35;;;3.80;;
23140;SDS011;11739;54.750;9.124;2023-06-22T05:39:13;6.00;;;5.25;;
23140;SDS011;11739;54.750;9.124;2023-06-22T05:41:39;6.28;;;5.70;;
23140;SDS011;11739;54.750;9.124;2023-06-22T05:44:04;4.60;;;4.20;;
23140;SDS011;11739;54.750;9.124;2023-06-22T05:46:29;4.50;;;4.10;;
23140;SDS011;11739;54.750;9.124;2023-06-22T05:48:55;4.32;;;3.92;;
23140;SDS011;11739;54.750;9.124;2023-06-22T05:51:20;4.40;;;3.80;;
23140;SDS011;11739;54.750;9.124;2023-06-22T05:53:45;4.72;;;4.10;;
23140;SDS011;11739;54.750;9.124;2023-06-22T05:56:10;5.22;;;4.57;;
23140;SDS011;11739;54.750;9.124;2023-06-22T05:58:36;4.70;;;4.30;;
23140;SDS011;11739;54.750;9.124;2023-06-22T06:01:01;7.00;;;6.32;;
23140;SDS011;11739;54.750;9.124;2023-06-22T06:03:26;7.15;;;6.28;;
23140;SDS011;11739;54.750;9.124;2023-06-22T06:05:52;5.53;;;5.03;;
23140;SDS011;11739;54.750;9.124;2023-06-22T06:08:17;5.00;;;4.60;;
23140;SDS011;11739;54.750;9.124;2023-06-22T06:10:42;7.57;;;6.20;;
23140;SDS011;11739;54.750;9.124;2023-06-22T06:13:07;8.70;;;6.13;;
23140;SDS011;11739;54.750;9.124;2023-06-22T06:15:34;6.65;;;6.15;;
23140;SDS011;11739;54.750;9.124;2023-06-22T06:17:59;8.20;;;7.40;;
23140;SDS011;11739;54.750;9.124;2023-06-22T06:20:25;6.38;;;5.78;;
23140;SDS011;11739;54.750;9.124;2023-06-22T06:22:51;7.53;;;6.70;;
23140;SDS011;11739;54.750;9.124;2023-06-22T06:25:16;7.20;;;6.50;;
23140;SDS011;11739;54.750;9.124;2023-06-22T06:27:42;6.10;;;5.30;;
23140;SDS011;11739;54.750;9.124;2023-06-22T06:30:08;6.57;;;5.97;;
23140;SDS011;11739;54.750;9.124;2023-06-22T06:32:33;6.32;;;5.72;;
23140;SDS011;11739;54.750;9.124;2023-06-22T06:34:59;5.85;;;5.25;;
23140;SDS011;11739;54.750;9.124;2023-06-22T06:37:24;6.95;;;5.75;;
23140;SDS011;11739;54.750;9.124;2023-06-22T06:39:49;8.07;;;5.28;;
23140;SDS011;11739;54.750;9.124;2023-06-22T06:42:15;6.13;;;4.80;;
23140;SDS011;11739;54.750;9.124;2023-06-22T06:44:40;5.32;;;4.80;;
23140;SDS011;11739;54.750;9.124;2023-06-22T06:47:05;5.90;;;4.32;;
23140;SDS011;11739;54.750;9.124;2023-06-22T06:49:31;5.05;;;4.05;;
23140;SDS011;11739;54.750;9.124;2023-06-22T06:51:56;4.38;;;3.90;;
23140;SDS011;11739;54.750;9.124;2023-06-22T06:54:21;4.35;;;3.95;;
23140;SDS011;11739;54.750;9.124;2023-06-22T06:56:47;4.55;;;3.63;;
23140;SDS011;11739;54.750;9.124;2023-06-22T06:59:12;8.07;;;4.15;;
23140;SDS011;11739;54.750;9.124;2023-06-22T07:01:37;3.95;;;3.10;;
23140;SDS011;11739;54.750;9.124;2023-06-22T07:04:03;4.80;;;4.15;;
23140;SDS011;11739;54.750;9.124;2023-06-22T07:06:28;3.45;;;3.13;;
23140;SDS011;11739;54.750;9.124;2023-06-22T07:08:53;5.00;;;3.83;;
23140;SDS011;11739;54.750;9.124;2023-06-22T07:11:19;3.85;;;3.47;;
23140;SDS011;11739;54.750;9.124;2023-06-22T07:13:45;5.88;;;3.85;;
23140;SDS011;11739;54.750;9.124;2023-06-22T07:16:10;3.58;;;3.28;;
23140;SDS011;11739;54.750;9.124;2023-06-22T07:18:35;3.42;;;2.97;;
23140;SDS011;11739;54.750;9.124;2023-06-22T07:21:01;4.05;;;3.30;;
23140;SDS011;11739;54.750;9.124;2023-06-22T07:23:26;6.35;;;3.10;;
23140;SDS011;11739;54.750;9.124;2023-06-22T07:25:51;3.33;;;3.03;;
23140;SDS011;11739;54.750;9.124;2023-06-22T07:28:17;4.28;;;3.13;;
23140;SDS011;11739;54.750;9.124;2023-06-22T07:30:42;4.68;;;2.60;;
23140;SDS011;11739;54.750;9.124;2023-06-22T07:33:07;3.92;;;2.72;;
23140;SDS011;11739;54.750;9.124;2023-06-22T07:35:32;3.33;;;2.70;;
23140;SDS011;11739;54.750;9.124;2023-06-22T07:37:58;2.55;;;2.28;;
23140;SDS011;11739;54.750;9.124;2023-06-22T07:40:23;4.00;;;2.50;;
23140;SDS011;11739;54.750;9.124;2023-06-22T07:42:49;2.78;;;2.53;;
23140;SDS011;11739;54.750;9.124;2023-06-22T07:45:14;2.72;;;2.40;;
23140;SDS011;11739;54.750;9.124;2023-06-22T07:47:39;4.00;;;2.65;;
23140;SDS011;11739;54.750;9.124;2023-06-22T07:50:05;2.78;;;2.05;;
23140;SDS011;11739;54.750;9.124;2023-06-22T07:52:30;2.80;;;2.47;;
23140;SDS011;11739;54.750;9.124;2023-06-22T07:54:56;3.83;;;2.30;;
23140;SDS011;11739;54.750;9.124;2023-06-22T07:57:21;2.50;;;2.30;;
23140;SDS011;11739;54.750;9.124;2023-06-22T07:59:47;2.55;;;2.28;;
23140;SDS011;11739;54.750;9.124;2023-06-22T08:02:12;2.28;;;2.08;;
23140;SDS011;11739;54.750;9.124;2023-06-22T08:04:37;3.45;;;1.90;;
23140;SDS011;11739;54.750;9.124;2023-06-22T08:07:03;2.33;;;2.13;;
23140;SDS011;11739;54.750;9.124;2023-06-22T08:09:29;2.38;;;1.80;;
23140;SDS011;11739;54.750;9.124;2023-06-22T08:11:55;2.20;;;2.00;;
23140;SDS011;11739;54.750;9.124;2023-06-22T08:14:20;3.65;;;2.10;;
23140;SDS011;11739;54.750;9.124;2023-06-22T08:16:46;2.28;;;2.00;;
23140;SDS011;11739;54.750;9.124;2023-06-22T08:19:11;2.47;;;2.10;;
23140;SDS011;11739;54.750;9.124;2023-06-22T08:21:36;2.03;;;1.83;;
23140;SDS011;11739;54.750;9.124;2023-06-22T08:24:01;2.30;;;2.10;;
23140;SDS011;11739;54.750;9.124;2023-06-22T08:26:27;2.40;;;2.20;;
23140;SDS011;11739;54.750;9.124;2023-06-22T08:28:52;3.33;;;2.55;;
23140;SDS011;11739;54.750;9.124;2023-06-22T08:31:17;3.22;;;2.92;;
23140;SDS011;11739;54.750;9.124;2023-06-22T08:33:43;2.70;;;2.45;;
23140;SDS011;11739;54.750;9.124;2023-06-22T08:36:08;3.42;;;2.55;;
23140;SDS011;11739;54.750;9.124;2023-06-22T08:38:33;2.47;;;2.28;;
23140;SDS011;11739;54.750;9.124;2023-06-22T08:40:59;2.92;;;2.08;;
23140;SDS011;11739;54.750;9.124;2023-06-22T08:43:24;3.63;;;2.50;;
23140;SDS011;11739;54.750;9.124;2023-06-22T08:45:49;3.33;;;2.42;;
23140;SDS011;11739;54.750;9.124;2023-06-22T08:48:15;4.68;;;2.20;;
23140;SDS011;11739;54.750;9.124;2023-06-22T08:50:40;3.03;;;2.20;;
23140;SDS011;11739;54.750;9.124;2023-06-22T08:53:05;2.50;;;2.30;;
23140;SDS011;11739;54.750;9.124;2023-06-22T08:55:31;2.65;;;2.30;;
23140;SDS011;11739;54.750;9.124;2023-06-22T08:57:56;2.35;;;1.83;;
23140;SDS011;11739;54.750;9.124;2023-06-22T09:00:21;2.40;;;2.20;;
23140;SDS011;11739;54.750;9.124;2023-06-22T09:02:47;2.53;;;2.20;;
23140;SDS011;11739;54.750;9.124;2023-06-22T09:05:12;3.65;;;2.42;;
23140;SDS011;11739;54.750;9.124;2023-06-22T09:07:38;2.17;;;1.80;;
23140;SDS011;11739;54.750;9.124;2023-06-22T09:10:04;2.40;;;2.00;;
23140;SDS011;11739;54.750;9.124;2023-06-22T09:12:29;3.05;;;1.95;;
23140;SDS011;11739;54.750;9.124;2023-06-22T09:14:55;2.47;;;1.92;;
23140;SDS011;11739;54.750;9.124;2023-06-22T09:17:20;2.20;;;2.10;;
23140;SDS011;11739;54.750;9.124;2023-06-22T09:19:45;2.30;;;2.10;;
23140;SDS011;11739;54.750;9.124;2023-06-22T09:22:11;2.35;;;2.10;;
23140;SDS011;11739;54.750;9.124;2023-06-22T09:24:36;4.32;;;2.50;;
23140;SDS011;11739;54.750;9.124;2023-06-22T09:27:01;3.60;;;2.30;;
23140;SDS011;11739;54.750;9.124;2023-06-22T09:29:27;1.67;;;1.58;;
23140;SDS011;11739;54.750;9.124;2023-06-22T09:31:52;3.08;;;2.20;;
23140;SDS011;11739;54.750;9.124;2023-06-22T09:34:17;2.17;;;1.98;;
23140;SDS011;11739;54.750;9.124;2023-06-22T09:36:42;1.80;;;1.67;;
23140;SDS011;11739;54.750;9.124;2023-06-22T09:39:08;2.45;;;2.13;;
23140;SDS011;11739;54.750;9.124;2023-06-22T09:41:33;2.35;;;2.13;;
23140;SDS011;11739;54.750;9.124;2023-06-22T09:43:58;2.00;;;1.90;;
23140;SDS011;11739;54.750;9.124;2023-06-22T09:46:24;2.58;;;2.10;;
23140;SDS011;11739;54.750;9.124;2023-06-22T09:48:49;2.20;;;2.00;;
23140;SDS011;11739;54.750;9.124;2023-06-22T09:51:14;3.67;;;2.10;;
23140;SDS011;11739;54.750;9.124;2023-06-22T09:53:40;3.38;;;2.30;;
23140;SDS011;11739;54.750;9.124;2023-06-22T09:56:05;2.15;;;1.90;;
23140;SDS011;11739;54.750;9.124;2023-06-22T09:58:30;1.88;;;1.75;;
23140;SDS011;11739;54.750;9.124;2023-06-22T10:00:55;1.90;;;1.70;;
23140;SDS011;11739;54.750;9.124;2023-06-22T10:03:21;3.05;;;1.70;;
23140;SDS011;11739;54.750;9.124;2023-06-22T10:05:46;3.00;;;1.98;;
23140;SDS011;11739;54.750;9.124;2023-06-22T10:08:11;2.08;;;1.75;;
23140;SDS011;11739;54.750;9.124;2023-06-22T10:10:37;1.95;;;1.65;;
23140;SDS011;11739;54.750;9.124;2023-06-22T10:13:04;2.10;;;1.80;;
23140;SDS011;11739;54.750;9.124;2023-06-22T10:15:33;2.45;;;1.83;;
23140;SDS011;11739;54.750;9.124;2023-06-22T10:17:58;2.85;;;1.90;;
23140;SDS011;11739;54.750;9.124;2023-06-22T10:20:23;2.13;;;1.90;;
23140;SDS011;11739;54.750;9.124;2023-06-22T10:22:49;2.45;;;1.88;;
23140;SDS011;11739;54.750;9.124;2023-06-22T10:25:14;1.70;;;1.60;;
23140;SDS011;11739;54.750;9.124;2023-06-22T10:27:39;2.83;;;1.60;;
23140;SDS011;11739;54.750;9.124;2023-06-22T10:30:05;1.90;;;1.70;;
23140;SDS011;11739;54.750;9.124;2023-06-22T10:32:32;2.00;;;1.83;;
23140;SDS011;11739;54.750;9.124;2023-06-22T10:34:57;3.78;;;1.80;;
23140;SDS011;11739;54.750;9.124;2023-06-22T10:37:22;1.92;;;1.60;;
23140;SDS011;11739;54.750;9.124;2023-06-22T10:39:47;1.67;;;1.58;;
23140;SDS011;11739;54.750;9.124;2023-06-22T10:42:13;1.70;;;1.60;;
23140;SDS011;11739;54.750;9.124;2023-06-22T10:44:38;2.25;;;1.75;;
23140;SDS011;11739;54.750;9.124;2023-06-22T10:47:03;2.50;;;1.70;;
23140;SDS011;11739;54.750;9.124;2023-06-22T10:49:29;1.80;;;1.70;;
23140;SDS011;11739;54.750;9.124;2023-06-22T10:51:54;2.45;;;1.80;;
23140;SDS011;11739;54.750;9.124;2023-06-22T10:54:20;2.00;;;1.80;;
23140;SDS011;11739;54.750;9.124;2023-06-22T10:56:45;1.90;;;1.70;;
23140;SDS011;11739;54.750;9.124;2023-06-22T10:59:10;1.98;;;1.75;;
23140;SDS011;11739;54.750;9.124;2023-06-22T11:01:35;2.38;;;1.60;;
23140;SDS011;11739;54.750;9.124;2023-06-22T11:04:01;1.90;;;1.55;;
23140;SDS011;11739;54.750;9.124;2023-06-22T11:06:26;1.73;;;1.55;;
23140;SDS011;11739;54.750;9.124;2023-06-22T11:08:51;1.65;;;1.55;;
23140;SDS011;11739;54.750;9.124;2023-06-22T11:11:17;2.00;;;1.50;;
23140;SDS011;11739;54.750;9.124;2023-06-22T11:13:42;1.73;;;1.60;;
23140;SDS011;11739;54.750;9.124;2023-06-22T11:16:07;2.13;;;1.77;;
23140;SDS011;11739;54.750;9.124;2023-06-22T11:18:33;1.63;;;1.52;;
23140;SDS011;11739;54.750;9.124;2023-06-22T11:20:58;2.55;;;1.85;;
23140;SDS011;11739;54.750;9.124;2023-06-22T11:23:23;2.05;;;1.58;;
23140;SDS011;11739;54.750;9.124;2023-06-22T11:25:49;1.90;;;1.77;;
23140;SDS011;11739;54.750;9.124;2023-06-22T11:28:14;1.70;;;1.45;;
23140;SDS011;11739;54.750;9.124;2023-06-22T11:30:39;1.52;;;1.42;;
23140;SDS011;11739;54.750;9.124;2023-06-22T11:33:05;1.90;;;1.73;;
23140;SDS011;11739;54.750;9.124;2023-06-22T11:35:30;1.70;;;1.60;;
23140;SDS011;11739;54.750;9.124;2023-06-22T11:37:55;1.80;;;1.70;;
23140;SDS011;11739;54.750;9.124;2023-06-22T11:40:20;2.03;;;1.80;;
23140;SDS011;11739;54.750;9.124;2023-06-22T11:42:46;1.48;;;1.38;;
23140;SDS011;11739;54.750;9.124;2023-06-22T11:45:11;2.00;;;1.60;;
23140;SDS011;11739;54.750;9.124;2023-06-22T11:47:36;1.80;;;1.70;;
23140;SDS011;11739;54.750;9.124;2023-06-22T11:50:02;1.88;;;1.75;;
23140;SDS011;11739;54.750;9.124;2023-06-22T11:52:28;2.72;;;1.65;;
23140;SDS011;11739;54.750;9.124;2023-06-22T11:54:53;2.67;;;1.70;;
23140;SDS011;11739;54.750;9.124;2023-06-22T11:57:18;5.93;;;1.77;;
23140;SDS011;11739;54.750;9.124;2023-06-22T11:59:44;6.82;;;1.33;;
23140;SDS011;11739;54.750;9.124;2023-06-22T12:02:09;3.60;;;1.45;;
23140;SDS011;11739;54.750;9.124;2023-06-22T12:04:34;2.05;;;1.70;;
23140;SDS011;11739;54.750;9.124;2023-06-22T12:07:00;1.60;;;1.50;;
23140;SDS011;11739;54.750;9.124;2023-06-22T12:09:25;2.85;;;1.73;;
23140;SDS011;11739;54.750;9.124;2023-06-22T12:11:50;1.55;;;1.45;;
23140;SDS011;11739;54.750;9.124;2023-06-22T12:14:16;1.90;;;1.60;;
23140;SDS011;11739;54.750;9.124;2023-06-22T12:16:41;2.20;;;1.60;;
23140;SDS011;11739;54.750;9.124;2023-06-22T12:19:06;1.88;;;1.42;;
23140;SDS011;11739;54.750;9.124;2023-06-22T12:21:32;2.83;;;1.77;;
23140;SDS011;11739;54.750;9.124;2023-06-22T12:23:57;1.65;;;1.55;;
23140;SDS011;11739;54.750;9.124;2023-06-22T12:26:22;2.97;;;1.58;;
23140;SDS011;11739;54.750;9.124;2023-06-22T12:28:48;2.92;;;1.80;;
23140;SDS011;11739;54.750;9.124;2023-06-22T12:31:13;2.28;;;1.60;;
23140;SDS011;11739;54.750;9.124;2023-06-22T12:33:39;1.80;;;1.70;;
23140;SDS011;11739;54.750;9.124;2023-06-22T12:36:04;1.50;;;1.40;;
23140;SDS011;11739;54.750;9.124;2023-06-22T12:38:29;3.30;;;1.80;;
23140;SDS011;11739;54.750;9.124;2023-06-22T12:40:55;1.95;;;1.75;;
23140;SDS011;11739;54.750;9.124;2023-06-22T12:43:20;1.50;;;1.33;;
23140;SDS011;11739;54.750;9.124;2023-06-22T12:45:45;2.45;;;1.60;;
23140;SDS011;11739;54.750;9.124;2023-06-22T12:48:11;2.40;;;1.40;;
23140;SDS011;11739;54.750;9.124;2023-06-22T12:50:36;2.42;;;1.55;;
23140;SDS011;11739;54.750;9.124;2023-06-22T12:53:01;1.67;;;1.52;;
23140;SDS011;11739;54.750;9.124;2023-06-22T12:55:27;2.30;;;1.60;;
23140;SDS011;11739;54.750;9.124;2023-06-22T12:57:52;2.72;;;1.33;;
23140;SDS011;11739;54.750;9.124;2023-06-22T13:00:17;1.50;;;1.40;;
23140;SDS011;11739;54.750;9.124;2023-06-22T13:02:43;1.48;;;1.35;;
23140;SDS011;11739;54.750;9.124;2023-06-22T13:05:08;1.60;;;1.50;;
23140;SDS011;11739;54.750;9.124;2023-06-22T13:07:33;1.60;;;1.50;;
23140;SDS011;11739;54.750;9.124;2023-06-22T13:09:59;1.58;;;1.48;;
23140;SDS011;11739;54.750;9.124;2023-06-22T13:12:24;2.92;;;1.60;;
23140;SDS011;11739;54.750;9.124;2023-06-22T13:14:49;1.92;;;1.70;;
23140;SDS011;11739;54.750;9.124;2023-06-22T13:17:15;1.80;;;1.50;;
23140;SDS011;11739;54.750;9.124;2023-06-22T13:19:40;1.33;;;1.23;;
23140;SDS011;11739;54.750;9.124;2023-06-22T13:22:09;2.45;;;1.60;;
23140;SDS011;11739;54.750;9.124;2023-06-22T13:24:57;2.55;;;1.38;;
23140;SDS011;11739;54.750;9.124;2023-06-22T13:27:23;1.42;;;1.33;;
23140;SDS011;11739;54.750;9.124;2023-06-22T13:29:48;2.85;;;1.45;;
23140;SDS011;11739;54.750;9.124;2023-06-22T13:32:13;1.58;;;1.33;;
23140;SDS011;11739;54.750;9.124;2023-06-22T13:34:39;1.40;;;1.33;;
23140;SDS011;11739;54.750;9.124;2023-06-22T13:37:04;1.40;;;1.30;;
23140;SDS011;11739;54.750;9.124;2023-06-22T13:39:29;1.60;;;1.50;;
23140;SDS011;11739;54.750;9.124;2023-06-22T13:41:55;1.50;;;1.40;;
23140;SDS011;11739;54.750;9.124;2023-06-22T13:44:20;1.40;;;1.27;;
23140;SDS011;11739;54.750;9.124;2023-06-22T13:46:45;1.60;;;1.50;;
23140;SDS011;11739;54.750;9.124;2023-06-22T13:49:11;1.70;;;1.60;;
23140;SDS011;11739;54.750;9.124;2023-06-22T13:51:36;1.30;;;1.20;;
23140;SDS011;11739;54.750;9.124;2023-06-22T13:54:01;1.63;;;1.40;;
23140;SDS011;11739;54.750;9.124;2023-06-22T13:56:27;2.15;;;1.40;;
23140;SDS011;11739;54.750;9.124;2023-06-22T13:58:52;1.33;;;1.23;;
23140;SDS011;11739;54.750;9.124;2023-06-22T14:01:17;2.15;;;1.45;;
23140;SDS011;11739;54.750;9.124;2023-06-22T14:03:43;1.40;;;1.30;;
23140;SDS011;11739;54.750;9.124;2023-06-22T14:06:08;2.47;;;1.45;;
23140;SDS011;11739;54.750;9.124;2023-06-22T14:08:33;1.30;;;1.20;;
23140;SDS011;11739;54.750;9.124;2023-06-22T14:10:59;1.80;;;1.40;;
23140;SDS011;11739;54.750;9.124;2023-06-22T14:13:24;1.55;;;1.40;;
23140;SDS011;11739;54.750;9.124;2023-06-22T14:15:49;1.50;;;1.40;;
23140;SDS011;11739;54.750;9.124;2023-06-22T14:18:14;1.50;;;1.33;;
23140;SDS011;11739;54.750;9.124;2023-06-22T14:20:40;1.80;;;1.70;;
23140;SDS011;11739;54.750;9.124;2023-06-22T14:23:05;1.63;;;1.52;;
23140;SDS011;11739;54.750;9.124;2023-06-22T14:25:30;1.77;;;1.60;;
23140;SDS011;11739;54.750;9.124;2023-06-22T14:27:56;2.30;;;1.75;;
23140;SDS011;11739;54.750;9.124;2023-06-22T14:30:21;2.42;;;1.67;;
23140;SDS011;11739;54.750;9.124;2023-06-22T14:32:46;1.52;;;1.42;;
23140;SDS011;11739;54.750;9.124;2023-06-22T14:35:12;1.63;;;1.50;;
23140;SDS011;11739;54.750;9.124;2023-06-22T14:37:37;2.53;;;1.60;;
23140;SDS011;11739;54.750;9.124;2023-06-22T14:40:03;1.88;;;1.63;;
23140;SDS011;11739;54.750;9.124;2023-06-22T14:42:28;2.55;;;1.60;;
23140;SDS011;11739;54.750;9.124;2023-06-22T14:44:53;1.63;;;1.52;;
23140;SDS011;11739;54.750;9.124;2023-06-22T14:47:19;2.42;;;1.33;;
23140;SDS011;11739;54.750;9.124;2023-06-22T14:49:44;1.90;;;1.70;;